Time;durP1;ratioP1;P1;durP2;ratioP2;P2;SDS_P1;SDS_P2;PMS_P1;PMS_P2;Temp;Humidity;BMP_temperature;BMP_pressure;BME280_temperature;BME280_humidity;BME280_pressure;Samples;Min_cycle;Max_cycle;Signal;HPM_P1;HPM_P2
2021/05/11 00:01:27;;;;;;;1.60;0.75;;;12.70;99.90;;;;;;5070428;28;20213;-75
2021/05/11 00:03:54;;;;;;;1.52;0.77;;;12.40;99.90;;;;;;5070609;28;20202;-89
2021/05/11 00:06:20;;;;;;;3.05;0.82;;;12.00;99.90;;;;;;5070882;28;20210;-83
2021/05/11 00:08:47;;;;;;;1.25;0.60;;;11.70;99.90;;;;;;5062738;28;20203;-75
2021/05/11 00:11:14;;;;;;;2.55;0.90;;;11.60;99.90;;;;;;5064808;28;20205;-77
2021/05/11 00:13:41;;;;;;;1.98;1.20;;;11.40;99.90;;;;;;5070375;28;20219;-82
2021/05/11 00:16:07;;;;;;;3.92;0.73;;;11.20;99.90;;;;;;5070316;28;20650;-76
2021/05/11 00:18:34;;;;;;;2.58;0.93;;;11.20;99.90;;;;;;5070507;28;20202;-79
2021/05/11 00:21:01;;;;;;;1.60;0.57;;;11.10;99.90;;;;;;5070471;28;20210;-80
2021/05/11 00:23:27;;;;;;;1.92;0.70;;;11.20;99.90;;;;;;5070681;28;20206;-80
2021/05/11 00:25:54;;;;;;;1.30;0.63;;;11.20;99.90;;;;;;5069511;28;20210;-81
2021/05/11 00:28:22;;;;;;;2.80;0.50;;;11.20;99.90;;;;;;5070499;28;20217;-79
2021/05/11 00:30:49;;;;;;;0.87;0.60;;;11.30;99.90;;;;;;5070669;28;20211;-78
2021/05/11 00:33:16;;;;;;;1.00;0.63;;;11.40;99.90;;;;;;5070555;28;20660;-79
2021/05/11 00:35:42;;;;;;;2.20;0.53;;;11.40;99.90;;;;;;5070043;28;20233;-77
2021/05/11 00:38:09;;;;;;;0.70;0.57;;;11.30;99.90;;;;;;5070026;28;20210;-77
2021/05/11 00:40:35;;;;;;;0.90;0.70;;;11.30;99.90;;;;;;5070033;28;20364;-77
2021/05/11 00:43:02;;;;;;;1.40;0.60;;;11.20;99.90;;;;;;5080347;28;20209;-76
2021/05/11 00:45:29;;;;;;;1.30;0.90;;;11.20;99.90;;;;;;5086889;28;20197;-76
2021/05/11 00:47:56;;;;;;;0.30;0.30;;;11.10;99.90;;;;;;5062331;28;20238;-75
2021/05/11 00:50:22;;;;;;;0.93;0.40;;;11.20;99.90;;;;;;5084919;28;20210;-76
2021/05/11 00:52:49;;;;;;;0.53;0.40;;;11.10;99.90;;;;;;5081891;28;20578;-75
2021/05/11 00:55:17;;;;;;;0.70;0.43;;;11.10;99.90;;;;;;5089964;28;20587;-76
2021/05/11 00:57:44;;;;;;;0.90;0.73;;;11.10;99.90;;;;;;5090453;28;20240;-75
2021/05/11 01:00:12;;;;;;;0.50;0.40;;;11.20;99.90;;;;;;5089664;28;20212;-76
2021/05/11 01:02:40;;;;;;;1.80;0.50;;;11.30;99.90;;;;;;5089965;28;20210;-76
2021/05/11 01:05:08;;;;;;;2.30;0.60;;;11.50;99.90;;;;;;5089909;28;20582;-74
2021/05/11 01:07:35;;;;;;;1.00;0.50;;;11.50;99.90;;;;;;5093622;28;20251;-75
2021/05/11 01:10:01;;;;;;;1.27;0.80;;;11.50;99.90;;;;;;5093280;28;20719;-75
2021/05/11 01:12:28;;;;;;;0.60;0.30;;;11.70;99.90;;;;;;5079302;28;20201;-75
2021/05/11 01:14:54;;;;;;;0.93;0.60;;;11.80;99.90;;;;;;5093728;28;20213;-78
2021/05/11 01:17:25;;;;;;;2.58;0.93;;;11.90;99.90;;;;;;5093709;28;20232;-77
2021/05/11 01:19:54;;;;;;;2.45;0.60;;;12.00;99.90;;;;;;5093569;28;20293;-77
2021/05/11 01:22:44;;;;;;;0.77;0.50;;;12.10;99.90;;;;;;5093496;28;20213;-77
2021/05/11 01:25:17;;;;;;;1.40;0.45;;;11.90;99.90;;;;;;5081757;28;20600;-77
2021/05/11 01:27:54;;;;;;;1.27;0.50;;;11.80;99.90;;;;;;5091410;28;20745;-78
2021/05/11 01:30:50;;;;;;;2.60;0.88;;;11.70;99.90;;;;;;5093504;28;20575;-78
2021/05/11 01:44:43;;;;;;;1.00;0.70;;;12.00;99.90;;;;;;5093641;28;20254;-78
2021/05/11 01:47:25;;;;;;;1.97;0.40;;;11.90;99.90;;;;;;5093058;28;20240;-78
2021/05/11 01:50:10;;;;;;;1.25;0.50;;;11.80;99.90;;;;;;5092430;28;20213;-77
2021/05/11 01:55:47;;;;;;;2.95;0.50;;;11.80;99.90;;;;;;5030914;28;20235;-77
2021/05/11 01:58:39;;;;;;;0.83;0.43;;;11.70;99.90;;;;;;5083277;28;20209;-77
2021/05/11 02:23:18;;;;;;;2.65;0.35;;;11.40;99.90;;;;;;5030723;28;20290;-79
2021/05/11 02:25:45;;;;;;;2.47;0.80;;;11.50;99.90;;;;;;5065166;28;20212;-79
2021/05/11 02:28:12;;;;;;;0.97;0.30;;;11.50;99.90;;;;;;5092160;28;21096;-79
2021/05/11 02:30:39;;;;;;;0.50;0.43;;;11.50;99.90;;;;;;5092382;28;20217;-78
2021/05/11 02:33:05;;;;;;;1.07;0.60;;;11.50;99.90;;;;;;5092157;28;20583;-73
2021/05/11 02:35:34;;;;;;;0.80;0.30;;;11.40;99.90;;;;;;5092422;28;20205;-78
2021/05/11 02:38:00;;;;;;;1.17;0.70;;;11.50;99.90;;;;;;5092208;28;20684;-81
2021/05/11 02:40:27;;;;;;;2.80;1.43;;;11.40;99.90;;;;;;5092849;28;20212;-83
2021/05/11 02:42:57;;;;;;;1.03;0.70;;;11.40;99.90;;;;;;5092529;28;20202;-78
2021/05/11 02:45:24;;;;;;;1.70;0.60;;;11.40;99.90;;;;;;5083544;28;20213;-72
2021/05/11 02:47:51;;;;;;;1.23;1.00;;;11.40;99.90;;;;;;5083834;28;20741;-83
2021/05/11 02:50:19;;;;;;;1.40;0.57;;;11.50;99.90;;;;;;5092728;28;20266;-79
2021/05/11 02:52:46;;;;;;;1.13;0.70;;;11.30;99.90;;;;;;5087833;28;20210;-88
2021/05/11 02:55:14;;;;;;;1.07;0.80;;;11.10;99.90;;;;;;5092391;28;20570;-87
2021/05/11 02:57:41;;;;;;;1.27;0.70;;;11.20;99.90;;;;;;5092691;28;20237;-93
2021/05/11 03:00:09;;;;;;;1.90;0.80;;;11.20;99.90;;;;;;5092316;28;20291;-89
2021/05/11 03:02:37;;;;;;;1.50;0.60;;;11.30;99.90;;;;;;5092403;28;20213;-80
2021/05/11 03:05:04;;;;;;;1.23;0.70;;;11.10;99.90;;;;;;5088932;28;20208;-92
2021/05/11 03:07:31;;;;;;;1.87;0.87;;;11.00;99.90;;;;;;5093179;28;20201;-90
2021/05/11 03:09:58;;;;;;;0.90;0.70;;;10.90;99.90;;;;;;5092066;28;20738;-84
2021/05/11 03:12:24;;;;;;;2.13;0.80;;;10.90;99.90;;;;;;5092358;28;20669;-85
2021/05/11 03:14:51;;;;;;;2.47;1.13;;;10.90;99.90;;;;;;5092428;28;20205;-84
2021/05/11 03:17:18;;;;;;;1.40;1.00;;;10.80;99.90;;;;;;5092405;28;20298;-88
2021/05/11 03:19:45;;;;;;;2.33;0.50;;;11.00;99.90;;;;;;5092115;28;20669;-84
2021/05/11 03:22:12;;;;;;;2.03;0.80;;;10.90;99.90;;;;;;5091811;28;20235;-84
2021/05/11 03:24:43;;;;;;;2.00;1.00;;;11.00;99.90;;;;;;5092135;28;20217;-83
2021/05/11 03:27:09;;;;;;;2.03;1.07;;;11.00;99.90;;;;;;5091835;28;20538;-90
2021/05/11 03:29:36;;;;;;;1.30;0.80;;;11.00;99.90;;;;;;5091890;28;20588;-89
2021/05/11 03:32:03;;;;;;;2.23;0.93;;;11.10;99.90;;;;;;5091496;28;20684;-79
2021/05/11 03:34:29;;;;;;;1.90;0.80;;;11.00;99.90;;;;;;5091964;28;20681;-84
2021/05/11 03:36:57;;;;;;;2.53;0.67;;;11.20;99.90;;;;;;5091930;28;20224;-84
2021/05/11 03:39:23;;;;;;;2.20;0.77;;;11.40;99.90;;;;;;5091838;28;20205;-84
2021/05/11 03:41:53;;;;;;;3.33;1.10;;;11.40;99.90;;;;;;5092172;28;20206;-72
2021/05/11 03:44:21;;;;;;;1.97;0.90;;;11.30;99.90;;;;;;5091831;28;20631;-89
2021/05/11 03:46:48;;;;;;;3.73;1.00;;;11.40;99.90;;;;;;5092550;28;20205;-85
2021/05/11 03:49:15;;;;;;;1.53;1.07;;;11.30;99.90;;;;;;5091409;28;20206;-85
2021/05/11 03:51:41;;;;;;;2.03;1.40;;;11.40;99.90;;;;;;5091759;28;20205;-87
2021/05/11 03:54:10;;;;;;;1.40;0.67;;;11.40;99.90;;;;;;5091581;28;20314;-87
2021/05/11 03:56:37;;;;;;;2.07;0.80;;;11.40;99.90;;;;;;5091370;28;20237;-80
2021/05/11 03:59:06;;;;;;;3.47;1.00;;;11.40;99.90;;;;;;5091538;28;20231;-90
2021/05/11 04:01:33;;;;;;;3.50;1.20;;;11.40;99.90;;;;;;5091630;28;20235;-89
2021/05/11 04:04:00;;;;;;;2.20;1.00;;;11.30;99.90;;;;;;5091158;28;20206;-82
2021/05/11 04:06:26;;;;;;;3.90;1.77;;;11.30;99.90;;;;;;5091604;28;20224;-88
2021/05/11 04:08:55;;;;;;;2.37;0.80;;;11.50;99.90;;;;;;5091343;28;20205;-84
2021/05/11 04:11:49;;;;;;;2.20;1.13;;;11.50;99.90;;;;;;5091315;28;20206;-83
2021/05/11 04:16:59;;;;;;;0.60;0.57;;;11.60;99.90;;;;;;5090495;28;20312;-84
2021/05/11 04:19:26;;;;;;;2.10;0.97;;;11.70;99.90;;;;;;5091428;28;20206;-79
2021/05/11 04:21:52;;;;;;;2.63;1.63;;;11.60;99.90;;;;;;5090696;28;20202;-85
2021/05/11 04:24:22;;;;;;;1.90;0.93;;;11.40;99.90;;;;;;5091771;28;20240;-89
2021/05/11 04:26:50;;;;;;;2.00;0.70;;;11.30;99.90;;;;;;5091782;28;20215;-81
2021/05/11 04:29:16;;;;;;;1.40;1.17;;;11.30;99.90;;;;;;5091309;28;20206;-84
2021/05/11 04:31:43;;;;;;;2.20;1.17;;;11.30;99.90;;;;;;5090991;28;20201;-82
2021/05/11 04:34:09;;;;;;;3.23;1.40;;;11.40;99.90;;;;;;5090328;28;20205;-84
2021/05/11 04:36:36;;;;;;;1.40;0.80;;;11.30;99.90;;;;;;5091156;28;20236;-80
2021/05/11 04:39:03;;;;;;;2.70;1.33;;;11.20;99.90;;;;;;5090405;28;20561;-83
2021/05/11 04:41:29;;;;;;;3.80;1.40;;;11.30;99.90;;;;;;5082724;28;20283;-80
2021/05/11 04:43:59;;;;;;;1.97;0.80;;;11.40;99.90;;;;;;5094837;28;20209;-79
2021/05/11 04:46:27;;;;;;;2.40;1.17;;;11.50;99.90;;;;;;5094977;28;20334;-86
2021/05/11 04:48:54;;;;;;;1.53;0.83;;;11.50;99.90;;;;;;5094968;28;20205;-84
2021/05/11 04:51:22;;;;;;;1.27;1.17;;;11.60;99.90;;;;;;5094550;28;20205;-83
2021/05/11 04:53:49;;;;;;;1.90;1.33;;;11.60;99.90;;;;;;5075558;28;20209;-84
2021/05/11 04:56:15;;;;;;;1.40;1.03;;;11.70;99.90;;;;;;5095027;28;20221;-82
2021/05/11 04:58:41;;;;;;;1.13;1.00;;;11.80;99.90;;;;;;5094564;28;20205;-80
2021/05/11 05:01:09;;;;;;;3.17;0.77;;;11.70;99.90;;;;;;5094495;28;20210;-84
2021/05/11 05:03:39;;;;;;;3.27;1.10;;;11.70;99.90;;;;;;5094594;28;20278;-86
2021/05/11 05:06:05;;;;;;;1.87;0.80;;;11.80;99.90;;;;;;5094816;28;20205;-86
2021/05/11 05:08:32;;;;;;;2.57;1.00;;;11.90;99.90;;;;;;5094964;28;20209;-84
2021/05/11 05:10:58;;;;;;;2.00;0.80;;;12.00;99.90;;;;;;5094656;28;20205;-86
2021/05/11 05:13:27;;;;;;;0.97;0.80;;;11.80;99.90;;;;;;5094875;28;20205;-86
2021/05/11 05:15:54;;;;;;;3.77;1.10;;;11.80;99.90;;;;;;5094157;28;20255;-82
2021/05/11 05:18:22;;;;;;;1.90;0.80;;;11.80;99.90;;;;;;5095107;28;20206;-83
2021/05/11 05:20:50;;;;;;;1.63;1.23;;;11.80;99.90;;;;;;5095064;28;20680;-77
2021/05/11 05:23:18;;;;;;;6.20;1.30;;;11.70;99.90;;;;;;5095097;28;20213;-83
2021/05/11 05:25:50;;;;;;;1.57;1.03;;;11.60;99.90;;;;;;5094475;28;20213;-87
2021/05/11 05:28:17;;;;;;;1.37;1.20;;;11.50;99.90;;;;;;5094754;28;20213;-86
2021/05/11 05:30:43;;;;;;;1.75;0.90;;;11.60;99.90;;;;;;5093954;28;20206;-80
2021/05/11 05:33:10;;;;;;;4.03;1.13;;;11.60;99.90;;;;;;5094086;28;20259;-83
2021/05/11 05:35:37;;;;;;;1.87;1.20;;;11.60;99.90;;;;;;5094278;28;20205;-84
2021/05/11 05:38:03;;;;;;;3.37;1.37;;;11.50;99.90;;;;;;5093897;28;20233;-84
2021/05/11 05:40:30;;;;;;;3.10;1.13;;;11.60;99.90;;;;;;5094169;28;20232;-80
2021/05/11 05:42:56;;;;;;;4.63;1.27;;;11.90;99.90;;;;;;5093657;28;20206;-77
2021/05/11 05:45:23;;;;;;;4.50;1.30;;;11.80;99.90;;;;;;5094171;28;20283;-78
2021/05/11 05:47:52;;;;;;;1.73;1.00;;;11.80;99.90;;;;;;5093893;28;20741;-87
2021/05/11 05:50:20;;;;;;;2.03;0.83;;;11.80;99.90;;;;;;5094108;28;20209;-84
2021/05/11 05:52:53;;;;;;;1.83;1.23;;;11.70;99.90;;;;;;5094050;28;20232;-81
2021/05/11 05:55:20;;;;;;;3.40;1.43;;;11.70;99.90;;;;;;5094000;28;20229;-83
2021/05/11 05:57:46;;;;;;;3.67;1.63;;;11.70;99.90;;;;;;5093929;28;20237;-77
2021/05/11 06:00:16;;;;;;;1.83;1.27;;;11.50;99.90;;;;;;5092760;28;20205;-79
2021/05/11 06:02:44;;;;;;;5.50;1.33;;;11.50;99.90;;;;;;5093431;28;20669;-76
2021/05/11 06:05:12;;;;;;;3.73;1.40;;;11.60;99.90;;;;;;5092805;28;20209;-76
2021/05/11 06:07:39;;;;;;;1.60;1.50;;;11.60;99.90;;;;;;5093791;28;20570;-86
2021/05/11 06:10:09;;;;;;;2.47;1.40;;;11.70;99.90;;;;;;5093258;28;20209;-86
2021/05/11 06:12:41;;;;;;;3.00;1.40;;;11.70;99.90;;;;;;5093754;28;20205;-82
2021/05/11 06:17:53;;;;;;;3.97;1.70;;;11.80;99.90;;;;;;5092827;28;20255;-82
2021/05/11 06:20:19;;;;;;;2.13;1.70;;;11.70;99.90;;;;;;5093194;28;20264;-84
2021/05/11 06:22:46;;;;;;;3.87;1.53;;;11.80;99.90;;;;;;5085763;28;20206;-80
2021/05/11 06:25:14;;;;;;;3.27;1.40;;;11.90;99.90;;;;;;5087003;28;20217;-81
2021/05/11 06:27:40;;;;;;;3.23;1.77;;;11.90;99.90;;;;;;5092747;28;20604;-85
2021/05/11 06:30:08;;;;;;;1.77;1.27;;;11.80;99.90;;;;;;5092945;28;20608;-84
2021/05/11 06:32:34;;;;;;;3.33;1.60;;;11.70;99.90;;;;;;5093116;28;20202;-84
2021/05/11 06:35:03;;;;;;;2.23;1.50;;;11.80;99.90;;;;;;5092818;28;20231;-85
2021/05/11 06:37:30;;;;;;;4.67;2.70;;;11.80;99.90;;;;;;5092849;28;20651;-82
2021/05/11 06:39:58;;;;;;;2.97;1.90;;;11.80;99.90;;;;;;5092785;28;20741;-81
2021/05/11 06:42:27;;;;;;;5.97;2.47;;;11.70;99.90;;;;;;5092870;28;20219;-84
2021/05/11 06:45:06;;;;;;;6.10;1.77;;;11.70;99.90;;;;;;5092568;28;20228;-84
2021/05/11 06:50:29;;;;;;;3.83;1.80;;;11.60;99.90;;;;;;5092457;28;20221;-81
2021/05/11 06:53:05;;;;;;;4.83;2.33;;;11.60;99.90;;;;;;5092395;28;20236;-85
2021/05/11 06:55:31;;;;;;;2.50;1.80;;;11.60;99.90;;;;;;5092903;28;20279;-83
2021/05/11 06:58:03;;;;;;;4.53;2.23;;;11.60;99.90;;;;;;5091771;28;20236;-82
2021/05/11 07:00:30;;;;;;;2.93;1.50;;;11.70;99.90;;;;;;5066025;28;20202;-79
2021/05/11 07:02:58;;;;;;;3.60;1.90;;;11.70;99.90;;;;;;5091905;28;20209;-85
2021/05/11 07:05:27;;;;;;;4.93;2.10;;;11.60;99.90;;;;;;5092014;28;20198;-81
2021/05/11 07:08:04;;;;;;;5.10;2.37;;;11.70;99.90;;;;;;5091863;28;20209;-80
2021/05/11 07:10:32;;;;;;;1.70;1.53;;;11.70;99.90;;;;;;5092219;28;20213;-81
2021/05/11 07:13:10;;;;;;;3.93;1.70;;;11.70;99.90;;;;;;5091558;28;20258;-78
2021/05/11 07:15:40;;;;;;;7.07;1.33;;;11.60;99.90;;;;;;5091711;28;20846;-81
2021/05/11 07:18:09;;;;;;;5.27;1.83;;;11.50;99.90;;;;;;5091702;28;20237;-86
2021/05/11 07:20:35;;;;;;;6.70;2.10;;;11.50;99.90;;;;;;5091871;28;20201;-78
2021/05/11 07:23:02;;;;;;;4.43;1.97;;;11.50;99.90;;;;;;5091481;28;20206;-78
2021/05/11 07:25:33;;;;;;;3.10;1.90;;;11.40;99.90;;;;;;5091473;28;20229;-83
2021/05/11 07:30:44;;;;;;;5.03;2.33;;;11.60;99.90;;;;;;5091394;28;20216;-78
2021/05/11 07:33:11;;;;;;;3.77;2.20;;;11.80;99.90;;;;;;5090970;28;20209;-74
2021/05/11 07:35:40;;;;;;;3.87;2.10;;;11.90;99.90;;;;;;5088678;28;20220;-76
2021/05/11 07:38:07;;;;;;;9.37;2.83;;;11.80;99.90;;;;;;5074364;28;20233;-77
2021/05/11 07:40:34;;;;;;;4.00;1.50;;;11.60;99.90;;;;;;5091033;28;20247;-74
2021/05/11 07:43:01;;;;;;;3.83;1.70;;;11.60;99.90;;;;;;5090984;28;20266;-72
2021/05/11 07:45:32;;;;;;;3.23;1.83;;;11.30;99.90;;;;;;5065489;28;20218;-74
2021/05/11 07:48:27;;;;;;;5.60;1.80;;;11.30;99.90;;;;;;5077402;28;20197;-73
2021/05/11 08:02:01;;;;;;;1.83;0.90;;;10.70;99.90;;;;;;5090326;28;20575;-73
2021/05/11 08:04:35;;;;;;;4.33;1.87;;;10.80;99.90;;;;;;5070048;28;20567;-74
2021/05/11 08:10:11;;;;;;;3.50;1.10;;;11.10;99.90;;;;;;5074084;28;20283;-73
2021/05/11 08:15:26;;;;;;;2.10;0.70;;;11.20;99.90;;;;;;5059327;28;20320;-73
2021/05/11 08:17:57;;;;;;;1.00;0.63;;;11.20;99.90;;;;;;5057647;28;20229;-72
2021/05/11 08:21:51;;;;;;;0.97;0.60;;;11.20;99.90;;;;;;5069139;28;20198;-74
2021/05/11 08:28:55;;;;;;;0.67;0.63;;;11.10;99.90;;;;;;5074755;28;20280;-72
2021/05/11 08:31:22;;;;;;;0.70;0.70;;;11.20;99.90;;;;;;5078332;28;20206;-73
2021/05/11 08:33:48;;;;;;;0.53;0.50;;;11.30;99.90;;;;;;5077666;28;20599;-71
2021/05/11 08:36:15;;;;;;;3.70;0.57;;;11.40;99.90;;;;;;5070024;28;20215;-71
2021/05/11 08:38:42;;;;;;;5.13;0.77;;;11.50;99.90;;;;;;5074506;28;20283;-71
2021/05/11 08:41:08;;;;;;;2.43;0.50;;;11.60;99.90;;;;;;5072302;28;20244;-72
2021/05/11 08:43:36;;;;;;;1.77;0.80;;;11.60;99.90;;;;;;5064221;28;20203;-72
2021/05/11 08:46:04;;;;;;;0.73;0.70;;;11.70;99.90;;;;;;5060714;28;20232;-71
2021/05/11 08:48:31;;;;;;;0.83;0.40;;;11.80;99.90;;;;;;5065116;28;20218;-73
2021/05/11 08:51:02;;;;;;;2.73;0.60;;;11.40;99.90;;;;;;5060811;28;20265;-71
2021/05/11 09:04:58;;;;;;;4.27;0.60;;;11.00;99.90;;;;;;4997014;28;20212;-70
2021/05/11 09:27:20;;;;;;;3.97;1.30;;;10.90;99.90;;;;;;5061472;28;20221;-70
2021/05/11 09:30:02;;;;;;;3.10;0.87;;;10.80;99.90;;;;;;5078898;28;20216;-70
2021/05/11 09:32:49;;;;;;;1.87;0.87;;;10.80;99.90;;;;;;5081137;28;20205;-70
2021/05/11 10:31:34;;;;;;;1.63;1.23;;;12.40;99.90;;;;;;5087851;28;20200;-72
2021/05/11 10:40:24;;;;;;;4.40;1.93;;;12.30;99.90;;;;;;5067981;28;20238;-72
2021/05/11 10:48:26;;;;;;;2.77;1.33;;;12.90;99.90;;;;;;5062559;28;20226;-71
2021/05/11 10:50:55;;;;;;;6.47;1.40;;;13.00;99.90;;;;;;5078851;28;20697;-73
2021/05/11 10:53:42;;;;;;;1.40;1.10;;;12.30;99.90;;;;;;5084278;28;20232;-73
2021/05/11 11:05:41;;;;;;;2.22;1.10;;;13.60;99.90;;;;;;5064920;28;20212;-74
2021/05/11 11:08:31;;;;;;;2.30;1.00;;;13.70;99.90;;;;;;5072132;28;20209;-73
2021/05/11 11:11:09;;;;;;;1.75;0.93;;;13.80;99.90;;;;;;5072891;28;20255;-71
2021/05/11 11:13:38;;;;;;;4.53;1.15;;;13.60;99.90;;;;;;5071527;28;20297;-72
2021/05/11 11:16:06;;;;;;;3.58;1.00;;;13.60;99.90;;;;;;5063655;28;20211;-73
2021/05/11 11:18:32;;;;;;;3.05;1.35;;;13.70;99.90;;;;;;5075147;28;20606;-73
2021/05/11 11:21:18;;;;;;;1.27;0.82;;;13.80;99.90;;;;;;5067941;28;20206;-72
2021/05/11 11:23:48;;;;;;;1.55;0.80;;;14.20;99.90;;;;;;5064647;28;20206;-72
2021/05/11 11:26:22;;;;;;;1.52;0.88;;;14.40;99.90;;;;;;5076848;28;20300;-72
2021/05/11 11:28:48;;;;;;;3.03;1.15;;;14.40;99.90;;;;;;5064866;28;20199;-72
2021/05/11 11:31:22;;;;;;;1.38;0.82;;;14.50;99.90;;;;;;5071111;28;20287;-73
2021/05/11 11:33:48;;;;;;;2.97;1.92;;;14.80;99.90;;;;;;5069674;28;20796;-73
2021/05/11 11:36:36;;;;;;;5.20;1.65;;;15.00;99.90;;;;;;5076082;28;20202;-74
2021/05/11 11:39:05;;;;;;;1.90;1.08;;;15.00;99.90;;;;;;5072832;28;20636;-74
2021/05/11 11:41:34;;;;;;;2.60;1.02;;;15.10;99.90;;;;;;5075934;28;20632;-73
2021/05/11 11:44:01;;;;;;;1.77;0.80;;;15.50;99.90;;;;;;5075267;28;20202;-73
2021/05/11 11:46:28;;;;;;;2.17;1.02;;;15.10;99.90;;;;;;5077561;28;20557;-74
2021/05/11 11:48:56;;;;;;;2.03;0.77;;;15.40;99.90;;;;;;5074588;28;20217;-75
2021/05/11 11:51:26;;;;;;;1.92;0.82;;;15.50;99.90;;;;;;5063316;28;20234;-74
2021/05/11 11:54:05;;;;;;;1.08;0.80;;;15.20;99.90;;;;;;5072662;28;20210;-75
2021/05/11 11:59:17;;;;;;;1.40;1.30;;;14.30;99.90;;;;;;5049274;28;20650;-74
2021/05/11 12:01:54;;;;;;;2.70;1.38;;;14.20;99.90;;;;;;5074448;28;20750;-74
2021/05/11 12:04:21;;;;;;;1.27;0.98;;;14.30;99.90;;;;;;5065134;28;20198;-75
2021/05/11 12:06:49;;;;;;;3.28;1.92;;;13.90;99.90;;;;;;5077361;28;20240;-74
2021/05/11 12:09:17;;;;;;;2.75;2.00;;;13.90;99.90;;;;;;5068211;28;20202;-78
2021/05/11 12:11:43;;;;;;;1.20;0.60;;;14.60;99.90;;;;;;5067842;28;20202;-79
2021/05/11 12:14:10;;;;;;;1.08;0.98;;;14.90;99.90;;;;;;5069186;28;20211;-77
2021/05/11 12:16:41;;;;;;;1.77;0.98;;;14.60;99.90;;;;;;5075282;28;20584;-76
2021/05/11 12:19:11;;;;;;;6.68;1.00;;;14.40;99.90;;;;;;5066368;28;20213;-75
2021/05/11 12:21:53;;;;;;;4.53;0.75;;;14.70;99.90;;;;;;5071719;28;20206;-77
2021/05/11 12:24:23;;;;;;;3.85;1.45;;;14.80;99.90;;;;;;5076683;28;20216;-75
2021/05/11 12:26:49;;;;;;;2.20;1.48;;;14.70;99.90;;;;;;5075547;28;20211;-77
2021/05/11 12:29:17;;;;;;;4.60;1.40;;;14.70;99.90;;;;;;5076321;28;20209;-76
2021/05/11 12:31:45;;;;;;;2.88;1.33;;;14.70;99.90;;;;;;5074004;28;20688;-76
2021/05/11 12:34:14;;;;;;;4.78;1.38;;;14.80;99.90;;;;;;5077166;28;20207;-73
2021/05/11 12:36:47;;;;;;;1.92;0.93;;;14.90;99.90;;;;;;5073499;28;20224;-75
2021/05/11 12:39:35;;;;;;;4.63;1.13;;;15.50;99.90;;;;;;5077782;28;20229;-75
2021/05/11 12:42:16;;;;;;;6.35;1.35;;;16.00;99.90;;;;;;5066490;28;20210;-78
2021/05/11 12:44:42;;;;;;;3.13;1.25;;;16.10;99.90;;;;;;5069590;28;20202;-76
2021/05/11 12:47:09;;;;;;;2.35;0.93;;;16.40;99.90;;;;;;5063184;28;20217;-76
2021/05/11 12:49:36;;;;;;;1.95;1.05;;;16.10;99.90;;;;;;5059813;28;20247;-76
2021/05/11 12:52:06;;;;;;;3.70;0.75;;;14.90;99.90;;;;;;5083790;28;20214;-75
2021/05/11 12:54:37;;;;;;;1.60;0.80;;;13.90;99.90;;;;;;5083017;28;20210;-77
2021/05/11 12:57:14;;;;;;;2.22;1.40;;;13.90;99.90;;;;;;5075095;28;20693;-77
2021/05/11 12:59:48;;;;;;;1.98;0.82;;;14.80;99.90;;;;;;5085583;28;20296;-76
2021/05/11 13:02:33;;;;;;;3.80;0.98;;;15.30;99.90;;;;;;5068756;28;20197;-75
2021/05/11 13:13:59;;;;;;;3.05;1.40;;;15.90;99.90;;;;;;5086835;28;20201;-77
2021/05/11 13:16:30;;;;;;;2.47;1.02;;;16.00;99.90;;;;;;5089232;28;20236;-72
2021/05/11 13:22:03;;;;;;;1.48;1.02;;;15.90;99.90;;;;;;5079240;28;20224;-74
2021/05/11 13:27:22;;;;;;;4.18;1.10;;;15.80;99.90;;;;;;5082380;28;20298;-73
2021/05/11 13:30:01;;;;;;;2.70;1.17;;;15.50;99.90;;;;;;5077257;28;20256;-74
2021/05/11 13:32:37;;;;;;;2.30;1.13;;;14.90;99.90;;;;;;5079881;28;20209;-75
2021/05/11 13:35:05;;;;;;;4.28;1.30;;;14.70;99.90;;;;;;5087295;28;20570;-78
2021/05/11 13:37:32;;;;;;;3.72;1.52;;;14.60;99.90;;;;;;5086321;28;20243;-75
2021/05/11 13:40:00;;;;;;;2.25;1.20;;;14.90;99.90;;;;;;5088467;28;20205;-74
2021/05/11 13:42:28;;;;;;;3.60;1.27;;;15.80;99.90;;;;;;5081794;28;20301;-77
2021/05/11 13:44:56;;;;;;;4.88;1.35;;;16.20;99.90;;;;;;5088880;28;20262;-76
2021/05/11 13:47:23;;;;;;;6.43;1.90;;;16.30;99.90;;;;;;5084412;28;20263;-78
2021/05/11 13:49:53;;;;;;;2.47;1.25;;;16.70;99.90;;;;;;5085353;28;20680;-77
2021/05/11 13:52:20;;;;;;;3.45;1.15;;;16.30;99.90;;;;;;5093390;28;20209;-76
2021/05/11 13:54:51;;;;;;;4.45;1.35;;;16.40;99.90;;;;;;5080238;28;20255;-74
2021/05/11 13:57:25;;;;;;;3.75;1.45;;;16.20;99.90;;;;;;5093563;28;20247;-75
2021/05/11 14:02:42;;;;;;;3.78;0.82;;;14.30;99.90;;;;;;5075428;28;20216;-76
2021/05/11 14:05:10;;;;;;;2.33;0.70;;;13.60;99.90;;;;;;5073864;28;20206;-78
2021/05/11 14:07:36;;;;;;;1.33;0.50;;;13.50;99.90;;;;;;5083806;28;20206;-76
2021/05/11 14:10:04;;;;;;;1.35;0.65;;;13.70;99.90;;;;;;5084603;28;20202;-75
2021/05/11 14:12:30;;;;;;;1.50;0.40;;;14.50;99.90;;;;;;5089028;28;20229;-75
2021/05/11 14:14:58;;;;;;;4.45;0.88;;;15.20;99.90;;;;;;5086700;28;20205;-75
2021/05/11 14:17:24;;;;;;;1.15;0.55;;;15.10;99.90;;;;;;5073441;28;20229;-74
2021/05/11 14:19:51;;;;;;;3.40;0.70;;;15.10;99.90;;;;;;5071533;28;20210;-77
2021/05/11 14:22:20;;;;;;;3.45;0.93;;;14.80;99.90;;;;;;5068564;28;20205;-72
2021/05/11 14:24:46;;;;;;;0.70;0.60;;;15.40;99.90;;;;;;5067542;28;20218;-74
2021/05/11 14:27:13;;;;;;;2.30;1.08;;;15.90;99.90;;;;;;5079734;28;20229;-79
2021/05/11 14:29:40;;;;;;;2.95;0.75;;;15.60;99.90;;;;;;5090963;28;20241;-76
2021/05/11 14:32:07;;;;;;;3.28;1.00;;;15.50;99.90;;;;;;5086085;28;20271;-77
2021/05/11 14:34:34;;;;;;;3.03;1.38;;;15.40;99.90;;;;;;5089023;28;20201;-77
2021/05/11 14:37:00;;;;;;;3.15;0.98;;;15.40;99.90;;;;;;5080434;28;20210;-74
2021/05/11 14:39:27;;;;;;;1.70;0.93;;;15.20;99.90;;;;;;5086521;28;20206;-75
2021/05/11 14:41:54;;;;;;;3.03;1.33;;;15.00;99.90;;;;;;5074902;28;20201;-77
2021/05/11 14:44:21;;;;;;;3.13;0.98;;;14.90;99.90;;;;;;5074627;28;20242;-74
2021/05/11 14:46:48;;;;;;;1.20;0.68;;;14.90;99.90;;;;;;5075006;28;20263;-74
2021/05/11 14:49:15;;;;;;;1.10;0.80;;;15.30;99.90;;;;;;5073902;28;20210;-74
2021/05/11 14:51:41;;;;;;;2.30;0.90;;;15.90;99.90;;;;;;5076090;28;20228;-75
2021/05/11 14:54:09;;;;;;;2.13;0.98;;;16.00;99.90;;;;;;5063293;28;20607;-76
2021/05/11 14:56:39;;;;;;;1.60;0.90;;;15.70;99.90;;;;;;5082186;28;20203;-76
2021/05/11 14:59:06;;;;;;;4.03;0.98;;;15.90;99.90;;;;;;5087520;28;20229;-82
2021/05/11 15:01:32;;;;;;;1.75;0.52;;;15.80;99.90;;;;;;5071741;28;20284;-80
2021/05/11 15:04:00;;;;;;;1.33;0.70;;;15.90;99.90;;;;;;5072610;28;20257;-76
2021/05/11 15:06:27;;;;;;;2.65;0.77;;;15.60;99.90;;;;;;5067346;28;20210;-74
2021/05/11 15:08:54;;;;;;;2.90;0.73;;;15.50;99.90;;;;;;5073120;28;20214;-75
2021/05/11 15:11:21;;;;;;;2.72;1.27;;;15.60;99.90;;;;;;5060415;28;20305;-72
2021/05/11 15:13:49;;;;;;;2.35;0.70;;;15.80;99.90;;;;;;5083583;28;20206;-75
2021/05/11 15:16:21;;;;;;;2.67;0.80;;;15.70;99.90;;;;;;5062798;28;20211;-80
2021/05/11 15:18:47;;;;;;;5.07;0.80;;;15.90;99.90;;;;;;5071574;28;20217;-77
2021/05/11 15:21:14;;;;;;;2.47;1.00;;;15.70;99.90;;;;;;5060961;28;20214;-75
2021/05/11 15:23:42;;;;;;;2.58;0.73;;;15.70;99.90;;;;;;5075766;28;20589;-77
2021/05/11 15:26:09;;;;;;;2.17;0.80;;;15.80;99.90;;;;;;5082970;28;20217;-77
2021/05/11 15:28:35;;;;;;;4.60;1.33;;;15.70;99.90;;;;;;5057561;28;20238;-76
2021/05/11 15:31:03;;;;;;;1.42;0.80;;;15.80;99.90;;;;;;5060682;28;20670;-80
2021/05/11 15:33:29;;;;;;;6.90;2.22;;;15.90;99.90;;;;;;5059233;28;20218;-79
2021/05/11 15:35:58;;;;;;;2.67;1.15;;;15.60;99.90;;;;;;5086349;28;20234;-77
2021/05/11 15:38:25;;;;;;;1.75;0.70;;;15.50;99.90;;;;;;5076315;28;20232;-77
2021/05/11 15:40:53;;;;;;;2.30;0.55;;;15.30;99.90;;;;;;5084640;28;20213;-75
2021/05/11 15:43:19;;;;;;;3.47;1.20;;;15.60;99.90;;;;;;5088829;28;20684;-77
2021/05/11 15:45:47;;;;;;;1.30;0.77;;;16.00;99.90;;;;;;5084048;28;20202;-79
2021/05/11 15:48:14;;;;;;;1.67;0.95;;;16.30;99.90;;;;;;5076429;28;20210;-77
2021/05/11 15:50:42;;;;;;;1.90;0.95;;;16.20;99.90;;;;;;5073451;28;20216;-77
2021/05/11 15:53:10;;;;;;;1.92;0.95;;;16.30;99.90;;;;;;5087950;28;20665;-76
2021/05/11 15:55:38;;;;;;;3.63;1.02;;;16.20;99.90;;;;;;5088953;28;20307;-78
2021/05/11 15:58:06;;;;;;;1.95;1.15;;;16.50;99.90;;;;;;5085199;28;20237;-78
2021/05/11 16:00:34;;;;;;;5.00;0.95;;;16.50;99.90;;;;;;5087956;28;20205;-81
2021/05/11 16:03:03;;;;;;;3.25;1.10;;;16.90;99.90;;;;;;5083876;28;20202;-77
2021/05/11 16:05:34;;;;;;;2.00;1.10;;;17.10;99.90;;;;;;5085854;28;20204;-76
2021/05/11 16:08:01;;;;;;;5.30;1.85;;;16.90;99.90;;;;;;5075402;28;20216;-79
2021/05/11 16:10:28;;;;;;;3.70;1.13;;;16.80;99.90;;;;;;5076282;28;20205;-81
2021/05/11 16:12:55;;;;;;;2.03;0.93;;;16.60;99.90;;;;;;5077734;28;20202;-77
2021/05/11 16:15:23;;;;;;;1.60;1.17;;;16.50;99.90;;;;;;5080107;28;20664;-76
2021/05/11 16:17:50;;;;;;;4.68;1.45;;;16.30;99.90;;;;;;5073333;28;20225;-77